Terminal Aerodrome Forecast
Issued by NWS

Current Version | Previous Version | Graphics & Text | Print | Product List | Glossary On
Versions: 1 2 3 4 5 6 7 8 9 10 11 12 13 14 15 16 17 18 19 20 21 22 23 24 25 26
000
FTUS41 KILN 191400 AAA
TAFLUK
TAF AMD
KLUK 191458Z 1915/2012 11008KT P6SM -RA FEW040 SCT060 OVC100
     FM191600 12014G24KT 5SM -SHRA OVC028
     FM192000 17012G24KT 4SM -SHRA OVC018
     FM192300 19012G20KT P6SM VCSH OVC020
     FM200900 18012KT P6SM VCSH OVC015=

USA.gov is the U.S. government's official web portal to all federal, state and local government web resources and services.